Celeris — WDF4614 — position and weather

sailwx.info

Track history (hours):
 
Tides and Currents Weather Stations Pressure Air Temp Water Temp Dewpoint Dewpoint Depression Visibility Wind Speed Wind Dir Waves Ship Positions

Celeris

Owner: Gigliotti, Gregory J, Stamford, CT. More information available from US FCC via Universal Licensing System and Coast Guard Vessel Documentation Center.

Last reported at 2017-Jul-22 20:07 UTC. Time now 2017-Dec-15 15:59 UTC.
Position N 40°42' W 074°01'.
Warning: this ship's position is months out of date.

Length 16 m.

Type: Pleasure craft. MMSI: 367453860.

Date/timePositionNaut miles runAvg speedWind from/ knotsBaromVisibWave heightAir tempDewpointWater temp
2017-Jul-22 20:07N 40°42' W 074°01'1 5.9
2017-Jul-22 19:59N 40°41' W 074°02'2 5.1
2017-Jul-22 19:30N 40°39' W 074°03'  
2017-Jul-19 18:50N 39°21' W 075°26'3 8.2
2017-Jul-19 18:30N 39°23' W 075°28'4 8.5
2017-Jul-19 18:00N 39°26' W 075°32'4 8.4
2017-Jul-19 17:30N 39°30' W 075°34'4 7.7
2017-Jul-19 17:00N 39°34' W 075°34'4 7.4
2017-Jul-19 16:30N 39°33' W 075°39'3 6.7
2017-Jul-19 15:59N 39°33' W 075°43'  
Track history (hours):
 
Tides and Currents Weather Stations Pressure Air Temp Water Temp Dewpoint Dewpoint Depression Visibility Wind Speed Wind Dir Waves Ship Positions

Celeris

Owner: Gigliotti, Gregory J, Stamford, CT. More information available from US FCC via Universal Licensing System and Coast Guard Vessel Documentation Center.

Last reported at 2017-Jul-22 20:07 UTC. Time now 2017-Dec-15 15:59 UTC.
Position N 40°42' W 074°01'.
Warning: this ship's position is months out of date.

Length 16 m.

Type: Pleasure craft. MMSI: 367453860.

Date/timePositionNaut miles runAvg speedWind from/ knotsBaromVisibWave heightAir tempDewpointWater temp
2017-Jul-22 20:07N 40°42' W 074°01'1 5.9
2017-Jul-22 19:59N 40°41' W 074°02'2 5.1
2017-Jul-22 19:30N 40°39' W 074°03'  
2017-Jul-19 18:50N 39°21' W 075°26'3 8.2
2017-Jul-19 18:30N 39°23' W 075°28'4 8.5
2017-Jul-19 18:00N 39°26' W 075°32'4 8.4
2017-Jul-19 17:30N 39°30' W 075°34'4 7.7
2017-Jul-19 17:00N 39°34' W 075°34'4 7.4
2017-Jul-19 16:30N 39°33' W 075°39'3 6.7
2017-Jul-19 15:59N 39°33' W 075°43'  

Dump ship's entire track history